sensor_id;sensor_type;location;lat;lon;timestamp;pressure;altitude;pressure_sealevel;temperature;humidity
12785;BME280;6456;42.680;23.260;2023-06-14T00:00:47;94387.75;;;18.43;100.00
12785;BME280;6456;42.680;23.260;2023-06-14T00:03:14;94313.69;;;17.94;100.00
12785;BME280;6456;42.680;23.260;2023-06-14T00:05:43;94371.25;;;18.36;100.00
12785;BME280;6456;42.680;23.260;2023-06-14T00:08:12;94365.91;;;18.36;100.00
12785;BME280;6456;42.680;23.260;2023-06-14T00:10:42;94381.94;;;18.51;100.00
12785;BME280;6456;42.680;23.260;2023-06-14T00:13:11;94371.50;;;18.44;100.00
12785;BME280;6456;42.680;23.260;2023-06-14T00:15:38;94376.84;;;18.49;100.00
12785;BME280;6456;42.680;23.260;2023-06-14T00:18:05;94288.16;;;17.93;100.00
12785;BME280;6456;42.680;23.260;2023-06-14T00:20:33;94382.19;;;18.49;100.00
12785;BME280;6456;42.680;23.260;2023-06-14T00:23:00;94341.66;;;18.27;100.00
12785;BME280;6456;42.680;23.260;2023-06-14T00:25:28;94371.81;;;18.48;100.00
12785;BME280;6456;42.680;23.260;2023-06-14T00:27:56;94374.47;;;18.48;100.00
12785;BME280;6456;42.680;23.260;2023-06-14T00:30:25;94369.63;;;18.45;100.00
12785;BME280;6456;42.680;23.260;2023-06-14T00:32:56;94361.13;;;18.28;100.00
12785;BME280;6456;42.680;23.260;2023-06-14T00:35:23;94299.31;;;17.90;100.00
12785;BME280;6456;42.680;23.260;2023-06-14T00:37:51;94333.94;;;18.16;100.00
12785;BME280;6456;42.680;23.260;2023-06-14T00:40:20;94298.25;;;17.97;100.00
12785;BME280;6456;42.680;23.260;2023-06-14T00:42:47;94335.81;;;18.20;100.00
12785;BME280;6456;42.680;23.260;2023-06-14T00:45:14;94357.38;;;18.34;100.00
12785;BME280;6456;42.680;23.260;2023-06-14T00:47:43;94319.03;;;18.15;100.00
12785;BME280;6456;42.680;23.260;2023-06-14T00:50:12;94309.97;;;18.11;100.00
12785;BME280;6456;42.680;23.260;2023-06-14T00:52:39;94353.13;;;18.38;100.00
12785;BME280;6456;42.680;23.260;2023-06-14T00:55:07;94302.53;;;18.03;100.00
12785;BME280;6456;42.680;23.260;2023-06-14T00:57:34;94301.19;;;18.05;100.00
12785;BME280;6456;42.680;23.260;2023-06-14T01:00:04;94252.44;;;17.69;100.00
12785;BME280;6456;42.680;23.260;2023-06-14T01:02:35;94292.16;;;17.96;100.00
12785;BME280;6456;42.680;23.260;2023-06-14T01:05:05;94327.28;;;18.23;100.00
12785;BME280;6456;42.680;23.260;2023-06-14T01:07:41;94321.69;;;18.15;100.00
12785;BME280;6456;42.680;23.260;2023-06-14T01:10:23;94254.06;;;17.70;100.00
12785;BME280;6456;42.680;23.260;2023-06-14T01:12:56;94279.59;;;17.91;100.00
12785;BME280;6456;42.680;23.260;2023-06-14T01:15:26;94305.19;;;18.03;100.00
12785;BME280;6456;42.680;23.260;2023-06-14T01:17:54;94336.34;;;18.22;100.00
12785;BME280;6456;42.680;23.260;2023-06-14T01:20:31;94341.13;;;18.25;100.00
12785;BME280;6456;42.680;23.260;2023-06-14T01:22:59;94319.56;;;18.17;100.00
12785;BME280;6456;42.680;23.260;2023-06-14T01:25:26;94286.00;;;17.90;100.00
12785;BME280;6456;42.680;23.260;2023-06-14T01:27:57;94302.50;;;17.82;100.00
12785;BME280;6456;42.680;23.260;2023-06-14T01:30:25;94282.22;;;17.61;100.00
12785;BME280;6456;42.680;23.260;2023-06-14T01:32:53;94360.03;;;17.99;100.00
12785;BME280;6456;42.680;23.260;2023-06-14T01:35:21;94344.56;;;17.85;100.00
12785;BME280;6456;42.680;23.260;2023-06-14T01:37:49;94285.38;;;17.38;100.00
12785;BME280;6456;42.680;23.260;2023-06-14T01:40:19;94347.47;;;17.84;100.00
12785;BME280;6456;42.680;23.260;2023-06-14T01:42:48;94357.34;;;17.83;100.00
12785;BME280;6456;42.680;23.260;2023-06-14T01:45:16;94341.88;;;17.70;100.00
12785;BME280;6456;42.680;23.260;2023-06-14T01:47:44;94344.53;;;17.65;100.00
12785;BME280;6456;42.680;23.260;2023-06-14T01:50:11;94332.28;;;17.64;100.00
12785;BME280;6456;42.680;23.260;2023-06-14T01:52:39;94294.91;;;17.34;100.00
12785;BME280;6456;42.680;23.260;2023-06-14T01:55:07;94365.03;;;17.80;100.00
12785;BME280;6456;42.680;23.260;2023-06-14T01:57:36;94327.47;;;17.61;100.00
12785;BME280;6456;42.680;23.260;2023-06-14T02:00:03;94297.34;;;17.36;100.00
12785;BME280;6456;42.680;23.260;2023-06-14T02:02:33;94350.88;;;17.59;100.00
12785;BME280;6456;42.680;23.260;2023-06-14T02:05:01;94361.00;;;17.62;100.00
12785;BME280;6456;42.680;23.260;2023-06-14T02:07:27;94358.03;;;17.54;100.00
12785;BME280;6456;42.680;23.260;2023-06-14T02:09:54;94317.25;;;17.28;100.00
12785;BME280;6456;42.680;23.260;2023-06-14T02:12:21;94306.78;;;17.11;100.00
12785;BME280;6456;42.680;23.260;2023-06-14T02:14:50;94328.88;;;17.12;100.00
12785;BME280;6456;42.680;23.260;2023-06-14T02:17:16;94395.22;;;17.44;100.00
12785;BME280;6456;42.680;23.260;2023-06-14T02:19:43;94318.69;;;16.99;100.00
12785;BME280;6456;42.680;23.260;2023-06-14T02:22:10;94313.97;;;17.06;100.00
12785;BME280;6456;42.680;23.260;2023-06-14T02:24:37;94392.56;;;17.49;100.00
12785;BME280;6456;42.680;23.260;2023-06-14T02:27:04;94360.59;;;17.33;100.00
12785;BME280;6456;42.680;23.260;2023-06-14T02:29:32;94338.22;;;17.19;100.00
12785;BME280;6456;42.680;23.260;2023-06-14T02:32:00;94386.47;;;17.48;100.00
12785;BME280;6456;42.680;23.260;2023-06-14T02:34:27;94311.00;;;16.97;100.00
12785;BME280;6456;42.680;23.260;2023-06-14T02:36:53;94391.53;;;17.50;100.00
12785;BME280;6456;42.680;23.260;2023-06-14T02:39:21;94363.84;;;17.41;100.00
12785;BME280;6456;42.680;23.260;2023-06-14T02:41:48;94387.06;;;17.55;100.00
12785;BME280;6456;42.680;23.260;2023-06-14T02:44:17;94389.41;;;17.52;100.00
12785;BME280;6456;42.680;23.260;2023-06-14T02:46:44;94292.56;;;16.76;100.00
12785;BME280;6456;42.680;23.260;2023-06-14T02:49:13;94281.66;;;16.72;100.00
12785;BME280;6456;42.680;23.260;2023-06-14T02:51:40;94266.22;;;16.69;100.00
12785;BME280;6456;42.680;23.260;2023-06-14T02:54:07;94387.00;;;17.50;100.00
12785;BME280;6456;42.680;23.260;2023-06-14T02:56:34;94341.72;;;17.30;100.00
12785;BME280;6456;42.680;23.260;2023-06-14T02:59:01;94386.28;;;17.60;100.00
12785;BME280;6456;42.680;23.260;2023-06-14T03:01:28;94290.06;;;17.06;100.00
12785;BME280;6456;42.680;23.260;2023-06-14T03:04:00;94271.88;;;16.83;100.00
12785;BME280;6456;42.680;23.260;2023-06-14T03:06:30;94357.75;;;17.50;100.00
12785;BME280;6456;42.680;23.260;2023-06-14T03:08:57;94374.31;;;17.62;100.00
12785;BME280;6456;42.680;23.260;2023-06-14T03:11:26;94399.34;;;17.76;100.00
12785;BME280;6456;42.680;23.260;2023-06-14T03:13:53;94411.31;;;17.74;100.00
12785;BME280;6456;42.680;23.260;2023-06-14T03:16:20;94343.81;;;17.18;100.00
12785;BME280;6456;42.680;23.260;2023-06-14T03:18:49;94378.19;;;17.45;100.00
12785;BME280;6456;42.680;23.260;2023-06-14T03:21:16;94424.31;;;17.60;100.00
12785;BME280;6456;42.680;23.260;2023-06-14T03:23:45;94395.78;;;17.46;100.00
12785;BME280;6456;42.680;23.260;2023-06-14T03:26:12;94396.03;;;17.49;100.00
12785;BME280;6456;42.680;23.260;2023-06-14T03:28:40;94415.25;;;17.61;100.00
12785;BME280;6456;42.680;23.260;2023-06-14T03:31:07;94372.25;;;17.22;100.00
12785;BME280;6456;42.680;23.260;2023-06-14T03:33:34;94382.59;;;17.19;100.00
12785;BME280;6456;42.680;23.260;2023-06-14T03:36:02;94417.28;;;17.44;100.00
12785;BME280;6456;42.680;23.260;2023-06-14T03:38:29;94392.75;;;17.27;100.00
12785;BME280;6456;42.680;23.260;2023-06-14T03:40:58;94397.25;;;17.26;100.00
12785;BME280;6456;42.680;23.260;2023-06-14T03:43:24;94366.28;;;16.95;100.00
12785;BME280;6456;42.680;23.260;2023-06-14T03:45:53;94417.50;;;17.27;100.00
12785;BME280;6456;42.680;23.260;2023-06-14T03:48:20;94390.81;;;17.12;100.00
12785;BME280;6456;42.680;23.260;2023-06-14T03:50:47;94337.28;;;16.94;100.00
12785;BME280;6456;42.680;23.260;2023-06-14T03:53:14;94355.41;;;17.02;100.00
12785;BME280;6456;42.680;23.260;2023-06-14T03:55:41;94287.16;;;16.55;100.00
12785;BME280;6456;42.680;23.260;2023-06-14T03:58:09;94365.06;;;17.18;100.00
12785;BME280;6456;42.680;23.260;2023-06-14T04:00:36;94411.53;;;17.57;100.00
12785;BME280;6456;42.680;23.260;2023-06-14T04:03:03;94368.00;;;17.26;100.00
12785;BME280;6456;42.680;23.260;2023-06-14T04:05:31;94409.97;;;17.71;100.00
12785;BME280;6456;42.680;23.260;2023-06-14T04:07:58;94424.66;;;17.84;100.00
12785;BME280;6456;42.680;23.260;2023-06-14T04:10:26;94319.13;;;17.33;100.00
12785;BME280;6456;42.680;23.260;2023-06-14T04:12:53;94410.06;;;17.97;100.00
12785;BME280;6456;42.680;23.260;2023-06-14T04:15:22;94307.44;;;17.49;100.00
12785;BME280;6456;42.680;23.260;2023-06-14T04:17:48;94320.03;;;17.63;100.00
12785;BME280;6456;42.680;23.260;2023-06-14T04:20:16;94367.22;;;17.98;100.00
12785;BME280;6456;42.680;23.260;2023-06-14T04:22:43;94320.09;;;17.83;100.00
12785;BME280;6456;42.680;23.260;2023-06-14T04:25:10;94387.47;;;18.44;100.00
12785;BME280;6456;42.680;23.260;2023-06-14T04:27:37;94352.59;;;18.31;100.00
12785;BME280;6456;42.680;23.260;2023-06-14T04:30:06;94397.13;;;18.61;100.00
12785;BME280;6456;42.680;23.260;2023-06-14T04:32:40;94430.66;;;18.82;100.00
12785;BME280;6456;42.680;23.260;2023-06-14T04:35:08;94414.16;;;18.75;100.00
12785;BME280;6456;42.680;23.260;2023-06-14T04:37:37;94425.59;;;19.00;100.00
12785;BME280;6456;42.680;23.260;2023-06-14T04:40:08;94361.94;;;18.64;100.00
12785;BME280;6456;42.680;23.260;2023-06-14T04:42:37;94422.63;;;19.17;100.00
12785;BME280;6456;42.680;23.260;2023-06-14T04:45:07;94387.47;;;19.00;100.00
12785;BME280;6456;42.680;23.260;2023-06-14T04:47:36;94422.34;;;19.39;100.00
12785;BME280;6456;42.680;23.260;2023-06-14T04:50:03;94358.94;;;19.05;100.00
12785;BME280;6456;42.680;23.260;2023-06-14T04:52:30;94401.25;;;19.32;100.00
12785;BME280;6456;42.680;23.260;2023-06-14T04:54:58;94380.47;;;19.19;100.00
12785;BME280;6456;42.680;23.260;2023-06-14T04:57:25;94375.94;;;19.19;100.00
12785;BME280;6456;42.680;23.260;2023-06-14T04:59:52;94442.00;;;19.68;100.00
12785;BME280;6456;42.680;23.260;2023-06-14T05:02:21;94416.69;;;19.55;100.00
12785;BME280;6456;42.680;23.260;2023-06-14T05:04:50;94366.59;;;19.22;100.00
12785;BME280;6456;42.680;23.260;2023-06-14T05:07:17;94440.34;;;19.77;100.00
12785;BME280;6456;42.680;23.260;2023-06-14T05:09:45;94452.59;;;19.88;100.00
12785;BME280;6456;42.680;23.260;2023-06-14T05:12:12;94454.75;;;19.86;100.00
12785;BME280;6456;42.680;23.260;2023-06-14T05:14:39;94414.25;;;19.69;100.00
12785;BME280;6456;42.680;23.260;2023-06-14T05:17:06;94417.03;;;19.39;100.00
12785;BME280;6456;42.680;23.260;2023-06-14T05:19:33;94455.44;;;19.38;100.00
12785;BME280;6456;42.680;23.260;2023-06-14T05:22:02;94461.03;;;19.36;100.00
12785;BME280;6456;42.680;23.260;2023-06-14T05:24:29;94357.66;;;18.63;100.00
12785;BME280;6456;42.680;23.260;2023-06-14T05:26:57;94466.38;;;19.31;100.00
12785;BME280;6456;42.680;23.260;2023-06-14T05:29:24;94418.66;;;19.04;100.00
12785;BME280;6456;42.680;23.260;2023-06-14T05:31:51;94471.44;;;19.43;100.00
12785;BME280;6456;42.680;23.260;2023-06-14T05:34:18;94407.47;;;19.02;100.00
12785;BME280;6456;42.680;23.260;2023-06-14T05:36:45;94417.06;;;19.13;100.00
12785;BME280;6456;42.680;23.260;2023-06-14T05:39:13;94427.13;;;19.32;100.00
12785;BME280;6456;42.680;23.260;2023-06-14T05:41:40;94427.69;;;19.39;100.00
12785;BME280;6456;42.680;23.260;2023-06-14T05:44:08;94439.69;;;19.46;100.00
12785;BME280;6456;42.680;23.260;2023-06-14T05:46:35;94409.78;;;19.44;100.00
12785;BME280;6456;42.680;23.260;2023-06-14T05:49:05;94408.38;;;19.62;100.00
12785;BME280;6456;42.680;23.260;2023-06-14T05:51:32;94413.13;;;19.75;100.00
12785;BME280;6456;42.680;23.260;2023-06-14T05:53:59;94465.88;;;20.03;100.00
12785;BME280;6456;42.680;23.260;2023-06-14T05:56:27;94382.81;;;19.51;100.00
12785;BME280;6456;42.680;23.260;2023-06-14T05:58:55;94488.59;;;20.01;100.00
12785;BME280;6456;42.680;23.260;2023-06-14T06:01:22;94394.34;;;19.41;100.00
12785;BME280;6456;42.680;23.260;2023-06-14T06:03:48;94394.06;;;19.33;100.00
12785;BME280;6456;42.680;23.260;2023-06-14T06:06:15;94419.09;;;19.47;100.00
12785;BME280;6456;42.680;23.260;2023-06-14T06:08:43;94409.28;;;19.22;100.00
12785;BME280;6456;42.680;23.260;2023-06-14T06:11:10;94411.19;;;19.06;100.00
12785;BME280;6456;42.680;23.260;2023-06-14T06:13:38;94386.66;;;18.94;100.00
12785;BME280;6456;42.680;23.260;2023-06-14T06:16:06;94441.03;;;19.44;100.00
12785;BME280;6456;42.680;23.260;2023-06-14T06:18:33;94439.13;;;19.29;100.00
12785;BME280;6456;42.680;23.260;2023-06-14T06:21:00;94491.09;;;19.72;100.00
12785;BME280;6456;42.680;23.260;2023-06-14T06:23:29;94413.81;;;19.27;100.00
12785;BME280;6456;42.680;23.260;2023-06-14T06:25:56;94506.03;;;19.78;100.00
12785;BME280;6456;42.680;23.260;2023-06-14T06:28:22;94487.41;;;19.58;100.00
12785;BME280;6456;42.680;23.260;2023-06-14T06:30:51;94515.41;;;19.70;100.00
12785;BME280;6456;42.680;23.260;2023-06-14T06:33:18;94499.91;;;19.67;100.00
12785;BME280;6456;42.680;23.260;2023-06-14T06:35:45;94484.19;;;19.66;100.00
12785;BME280;6456;42.680;23.260;2023-06-14T06:38:12;94493.72;;;19.87;100.00
12785;BME280;6456;42.680;23.260;2023-06-14T06:40:39;94468.66;;;19.78;100.00
12785;BME280;6456;42.680;23.260;2023-06-14T06:43:06;94458.78;;;19.78;100.00
12785;BME280;6456;42.680;23.260;2023-06-14T06:45:33;94489.06;;;20.18;100.00
12785;BME280;6456;42.680;23.260;2023-06-14T06:48:01;94447.63;;;20.20;100.00
12785;BME280;6456;42.680;23.260;2023-06-14T06:50:28;94424.66;;;20.24;100.00
12785;BME280;6456;42.680;23.260;2023-06-14T06:52:55;94435.13;;;20.55;100.00
12785;BME280;6456;42.680;23.260;2023-06-14T06:55:22;94474.47;;;20.88;100.00
12785;BME280;6456;42.680;23.260;2023-06-14T06:57:49;94393.91;;;20.66;100.00
12785;BME280;6456;42.680;23.260;2023-06-14T07:00:18;94427.75;;;21.14;100.00
12785;BME280;6456;42.680;23.260;2023-06-14T07:02:45;94519.16;;;21.79;100.00
12785;BME280;6456;42.680;23.260;2023-06-14T07:05:15;94431.34;;;21.28;100.00
12785;BME280;6456;42.680;23.260;2023-06-14T07:07:42;94495.22;;;21.63;100.00
12785;BME280;6456;42.680;23.260;2023-06-14T07:10:09;94501.31;;;21.69;100.00
12785;BME280;6456;42.680;23.260;2023-06-14T07:12:35;94520.19;;;21.83;100.00
12785;BME280;6456;42.680;23.260;2023-06-14T07:15:06;94460.13;;;21.41;100.00
12785;BME280;6456;42.680;23.260;2023-06-14T07:17:33;94460.47;;;21.58;100.00
12785;BME280;6456;42.680;23.260;2023-06-14T07:20:01;94451.63;;;21.58;100.00
12785;BME280;6456;42.680;23.260;2023-06-14T07:22:39;94467.69;;;21.87;100.00
12785;BME280;6456;42.680;23.260;2023-06-14T07:25:08;94434.03;;;21.76;100.00
12785;BME280;6456;42.680;23.260;2023-06-14T07:27:35;94487.75;;;22.50;100.00
12785;BME280;6456;42.680;23.260;2023-06-14T07:30:02;94501.56;;;22.81;100.00
12785;BME280;6456;42.680;23.260;2023-06-14T07:32:29;94478.25;;;22.95;100.00
12785;BME280;6456;42.680;23.260;2023-06-14T07:34:55;94510.78;;;23.26;100.00
12785;BME280;6456;42.680;23.260;2023-06-14T07:37:22;94499.91;;;23.36;100.00
12785;BME280;6456;42.680;23.260;2023-06-14T07:39:50;94513.47;;;23.58;100.00
12785;BME280;6456;42.680;23.260;2023-06-14T07:42:17;94413.00;;;23.00;100.00
12785;BME280;6456;42.680;23.260;2023-06-14T07:44:48;94444.75;;;23.25;100.00
12785;BME280;6456;42.680;23.260;2023-06-14T07:47:16;94491.00;;;23.54;100.00
12785;BME280;6456;42.680;23.260;2023-06-14T07:49:43;94476.47;;;23.55;100.00
12785;BME280;6456;42.680;23.260;2023-06-14T07:52:10;94510.63;;;23.82;100.00
12785;BME280;6456;42.680;23.260;2023-06-14T07:54:37;94470.53;;;23.72;100.00
12785;BME280;6456;42.680;23.260;2023-06-14T07:57:05;94462.38;;;23.90;100.00
12785;BME280;6456;42.680;23.260;2023-06-14T07:59:32;94522.81;;;24.34;100.00
12785;BME280;6456;42.680;23.260;2023-06-14T08:01:59;94518.84;;;24.31;99.54
12785;BME280;6456;42.680;23.260;2023-06-14T08:04:26;94461.66;;;23.98;98.60
12785;BME280;6456;42.680;23.260;2023-06-14T08:06:53;94493.44;;;24.10;99.79
12785;BME280;6456;42.680;23.260;2023-06-14T08:09:20;94535.94;;;24.49;99.90
12785;BME280;6456;42.680;23.260;2023-06-14T08:11:47;94516.31;;;24.48;98.31
12785;BME280;6456;42.680;23.260;2023-06-14T08:14:15;94518.50;;;24.60;96.57
12785;BME280;6456;42.680;23.260;2023-06-14T08:16:42;94480.47;;;24.39;96.35
12785;BME280;6456;42.680;23.260;2023-06-14T08:19:09;94537.84;;;24.62;94.91
12785;BME280;6456;42.680;23.260;2023-06-14T08:21:37;94489.47;;;24.35;94.54
12785;BME280;6456;42.680;23.260;2023-06-14T08:24:04;94503.56;;;24.40;92.30
12785;BME280;6456;42.680;23.260;2023-06-14T08:26:31;94471.94;;;24.23;91.50
12785;BME280;6456;42.680;23.260;2023-06-14T08:28:58;94474.03;;;24.27;92.19
12785;BME280;6456;42.680;23.260;2023-06-14T08:31:26;94483.28;;;24.20;90.95
12785;BME280;6456;42.680;23.260;2023-06-14T08:33:54;94503.22;;;24.19;92.04
12785;BME280;6456;42.680;23.260;2023-06-14T08:36:21;94531.47;;;24.44;93.31
12785;BME280;6456;42.680;23.260;2023-06-14T08:38:48;94489.50;;;24.07;91.30
12785;BME280;6456;42.680;23.260;2023-06-14T08:41:20;94523.47;;;23.98;91.92
12785;BME280;6456;42.680;23.260;2023-06-14T08:43:47;94454.09;;;23.46;93.38
12785;BME280;6456;42.680;23.260;2023-06-14T08:46:17;94514.94;;;24.10;92.81
12785;BME280;6456;42.680;23.260;2023-06-14T08:48:48;94526.19;;;24.39;92.62
12785;BME280;6456;42.680;23.260;2023-06-14T08:51:18;94519.91;;;24.57;92.74
12785;BME280;6456;42.680;23.260;2023-06-14T08:53:51;94450.13;;;24.25;88.94
12785;BME280;6456;42.680;23.260;2023-06-14T08:56:19;94522.28;;;24.72;88.74
12785;BME280;6456;42.680;23.260;2023-06-14T08:58:48;94511.91;;;24.79;86.08
12785;BME280;6456;42.680;23.260;2023-06-14T09:01:16;94445.69;;;24.43;85.37
12785;BME280;6456;42.680;23.260;2023-06-14T09:03:43;94411.97;;;24.23;86.11
12785;BME280;6456;42.680;23.260;2023-06-14T09:06:15;94414.16;;;24.35;85.69
12785;BME280;6456;42.680;23.260;2023-06-14T09:08:45;94415.13;;;24.39;87.69
12785;BME280;6456;42.680;23.260;2023-06-14T09:11:14;94488.31;;;24.99;89.16
12785;BME280;6456;42.680;23.260;2023-06-14T09:13:41;94496.72;;;25.19;86.62
12785;BME280;6456;42.680;23.260;2023-06-14T09:16:08;94503.19;;;25.18;85.62
12785;BME280;6456;42.680;23.260;2023-06-14T09:18:36;94465.31;;;25.15;86.03
12785;BME280;6456;42.680;23.260;2023-06-14T09:21:06;94486.41;;;25.21;85.30
12785;BME280;6456;42.680;23.260;2023-06-14T09:23:36;94432.19;;;24.70;85.03
12785;BME280;6456;42.680;23.260;2023-06-14T09:26:07;94432.50;;;24.91;85.49
12785;BME280;6456;42.680;23.260;2023-06-14T09:28:35;94466.47;;;25.22;87.44
12785;BME280;6456;42.680;23.260;2023-06-14T09:31:02;94494.88;;;25.51;89.55
12785;BME280;6456;42.680;23.260;2023-06-14T09:33:31;94401.22;;;24.95;85.88
12785;BME280;6456;42.680;23.260;2023-06-14T09:35:58;94490.03;;;25.61;85.56
12785;BME280;6456;42.680;23.260;2023-06-14T09:38:25;94503.91;;;25.77;84.31
12785;BME280;6456;42.680;23.260;2023-06-14T09:40:58;94495.53;;;25.87;82.51
12785;BME280;6456;42.680;23.260;2023-06-14T09:43:25;94494.78;;;25.95;82.04
12785;BME280;6456;42.680;23.260;2023-06-14T09:45:54;94474.19;;;25.99;81.91
12785;BME280;6456;42.680;23.260;2023-06-14T09:48:21;94475.31;;;26.06;81.23
12785;BME280;6456;42.680;23.260;2023-06-14T09:50:50;94431.09;;;25.68;80.18
12785;BME280;6456;42.680;23.260;2023-06-14T09:53:21;94467.25;;;25.67;78.61
12785;BME280;6456;42.680;23.260;2023-06-14T09:55:50;94432.56;;;25.21;81.57
12785;BME280;6456;42.680;23.260;2023-06-14T09:58:20;94397.81;;;24.67;81.51
12785;BME280;6456;42.680;23.260;2023-06-14T10:00:50;94403.59;;;24.38;82.37
12785;BME280;6456;42.680;23.260;2023-06-14T10:03:24;94382.00;;;24.30;83.37
12785;BME280;6456;42.680;23.260;2023-06-14T10:05:52;94416.41;;;24.55;83.56
12785;BME280;6456;42.680;23.260;2023-06-14T10:08:23;94440.06;;;24.80;83.27
12785;BME280;6456;42.680;23.260;2023-06-14T10:10:53;94426.88;;;24.78;86.47
12785;BME280;6456;42.680;23.260;2023-06-14T10:13:21;94372.78;;;24.44;86.34
12785;BME280;6456;42.680;23.260;2023-06-14T10:15:58;94470.06;;;24.96;86.83
12785;BME280;6456;42.680;23.260;2023-06-14T10:18:33;94377.38;;;24.66;86.09
12785;BME280;6456;42.680;23.260;2023-06-14T10:21:18;94447.25;;;25.37;84.22
12785;BME280;6456;42.680;23.260;2023-06-14T10:23:49;94342.41;;;24.88;81.28
12785;BME280;6456;42.680;23.260;2023-06-14T10:26:23;94384.63;;;25.32;80.56
12785;BME280;6456;42.680;23.260;2023-06-14T10:28:59;94454.50;;;25.90;82.53
12785;BME280;6456;42.680;23.260;2023-06-14T10:31:44;94430.88;;;25.56;80.35
12785;BME280;6456;42.680;23.260;2023-06-14T10:34:12;94407.69;;;25.46;82.51
12785;BME280;6456;42.680;23.260;2023-06-14T10:36:42;94354.53;;;25.38;84.34
12785;BME280;6456;42.680;23.260;2023-06-14T10:39:14;94425.47;;;25.87;79.22
12785;BME280;6456;42.680;23.260;2023-06-14T10:41:50;94438.03;;;26.00;80.12
12785;BME280;6456;42.680;23.260;2023-06-14T10:44:33;94446.28;;;25.95;80.44
12785;BME280;6456;42.680;23.260;2023-06-14T10:47:01;94438.13;;;25.78;79.66
12785;BME280;6456;42.680;23.260;2023-06-14T10:49:39;94348.88;;;25.40;81.28
12785;BME280;6456;42.680;23.260;2023-06-14T10:52:11;94373.50;;;25.56;81.06
12785;BME280;6456;42.680;23.260;2023-06-14T10:55:03;94432.56;;;25.83;78.37
12785;BME280;6456;42.680;23.260;2023-06-14T10:57:32;94422.84;;;25.73;78.94
12785;BME280;6456;42.680;23.260;2023-06-14T11:00:01;94326.69;;;25.04;83.48
12785;BME280;6456;42.680;23.260;2023-06-14T11:03:02;94402.72;;;25.71;80.79
12785;BME280;6456;42.680;23.260;2023-06-14T11:05:44;94412.03;;;26.04;76.55
12785;BME280;6456;42.680;23.260;2023-06-14T11:08:27;94376.31;;;25.98;74.94
12785;BME280;6456;42.680;23.260;2023-06-14T11:11:00;94391.06;;;26.01;74.76
12785;BME280;6456;42.680;23.260;2023-06-14T11:13:27;94393.16;;;26.04;73.83
12785;BME280;6456;42.680;23.260;2023-06-14T11:15:55;94394.25;;;26.03;73.97
12785;BME280;6456;42.680;23.260;2023-06-14T11:18:23;94390.78;;;25.55;75.50
12785;BME280;6456;42.680;23.260;2023-06-14T11:20:53;94305.59;;;24.97;76.35
12785;BME280;6456;42.680;23.260;2023-06-14T11:23:21;94341.63;;;25.18;77.43
12785;BME280;6456;42.680;23.260;2023-06-14T11:25:52;94406.06;;;25.76;78.02
12785;BME280;6456;42.680;23.260;2023-06-14T11:28:19;94404.88;;;26.08;78.61
12785;BME280;6456;42.680;23.260;2023-06-14T11:30:47;94345.06;;;25.89;75.26
12785;BME280;6456;42.680;23.260;2023-06-14T11:33:18;94395.78;;;26.35;71.81
12785;BME280;6456;42.680;23.260;2023-06-14T11:35:45;94340.41;;;26.20;72.37
12785;BME280;6456;42.680;23.260;2023-06-14T11:38:15;94394.50;;;26.49;71.24
12785;BME280;6456;42.680;23.260;2023-06-14T11:40:42;94354.19;;;26.19;73.01
12785;BME280;6456;42.680;23.260;2023-06-14T11:43:13;94358.31;;;26.25;75.48
12785;BME280;6456;42.680;23.260;2023-06-14T11:45:40;94379.56;;;26.18;73.29
12785;BME280;6456;42.680;23.260;2023-06-14T11:48:07;94303.66;;;25.28;73.02
12785;BME280;6456;42.680;23.260;2023-06-14T11:50:38;94344.09;;;25.37;74.25
12785;BME280;6456;42.680;23.260;2023-06-14T11:53:05;94315.56;;;25.36;75.52
12785;BME280;6456;42.680;23.260;2023-06-14T11:55:36;94326.59;;;25.57;74.83
12785;BME280;6456;42.680;23.260;2023-06-14T11:58:14;94303.16;;;25.66;71.82
12785;BME280;6456;42.680;23.260;2023-06-14T12:00:41;94368.00;;;26.17;73.57
12785;BME280;6456;42.680;23.260;2023-06-14T12:03:08;94272.91;;;25.69;75.02
12785;BME280;6456;42.680;23.260;2023-06-14T12:05:38;94351.66;;;26.48;73.72
12785;BME280;6456;42.680;23.260;2023-06-14T12:08:05;94337.19;;;26.69;72.87
12785;BME280;6456;42.680;23.260;2023-06-14T12:10:39;94318.94;;;26.84;74.59
12785;BME280;6456;42.680;23.260;2023-06-14T12:13:09;94277.22;;;26.55;70.27
12785;BME280;6456;42.680;23.260;2023-06-14T12:15:36;94337.66;;;26.97;70.89
12785;BME280;6456;42.680;23.260;2023-06-14T12:18:05;94245.31;;;26.49;69.05
12785;BME280;6456;42.680;23.260;2023-06-14T12:20:33;94276.84;;;26.74;67.43
12785;BME280;6456;42.680;23.260;2023-06-14T12:23:04;94299.56;;;26.90;69.79
12785;BME280;6456;42.680;23.260;2023-06-14T12:25:32;94314.59;;;27.08;72.89
12785;BME280;6456;42.680;23.260;2023-06-14T12:28:04;94335.25;;;27.13;72.52
12785;BME280;6456;42.680;23.260;2023-06-14T12:30:35;94330.13;;;27.20;67.85
12785;BME280;6456;42.680;23.260;2023-06-14T12:33:27;94242.56;;;26.74;68.24
12785;BME280;6456;42.680;23.260;2023-06-14T12:36:03;94321.66;;;27.30;67.92
12785;BME280;6456;42.680;23.260;2023-06-14T12:38:32;94241.97;;;26.78;69.31
12785;BME280;6456;42.680;23.260;2023-06-14T12:40:59;94318.28;;;27.50;73.24
12785;BME280;6456;42.680;23.260;2023-06-14T12:43:30;94264.41;;;27.36;70.58
12785;BME280;6456;42.680;23.260;2023-06-14T12:46:01;94311.56;;;27.85;70.58
12785;BME280;6456;42.680;23.260;2023-06-14T12:48:28;94289.41;;;27.92;68.12
12785;BME280;6456;42.680;23.260;2023-06-14T12:51:08;94287.09;;;27.82;67.65
12785;BME280;6456;42.680;23.260;2023-06-14T12:54:03;94208.84;;;27.56;69.99
12785;BME280;6456;42.680;23.260;2023-06-14T12:56:46;94290.28;;;28.46;66.42
12785;BME280;6456;42.680;23.260;2023-06-14T12:59:18;94285.81;;;28.50;66.57
12785;BME280;6456;42.680;23.260;2023-06-14T13:01:45;94260.09;;;28.23;66.18